メインページ
METAR-TAF:

METAR-TAF

空港 :

輪島, 日本

能登空港

緯度: 37-17-36N, 経度: 136-57-44E, 海抜: 219m

現時点の気象観測

当レポートは40分前の23:00(UTC)に作成
無風
気温 -2°C
湿度 100%
気圧 1022 hPa
視程: 3500m
高度2500ftの雲はほとんどない
高度3000ftの雲は散在している
高度5000ftの千切れ雲あり
弱いにわか雪

METAR: RJNW 182300Z 00000KT 3500 -SHSN FEW025 SCT030 BKN050 M02/M02 Q1022

時間: 08:40 (23:40 UTC)


TAF: 見つかりません

4,000以上の空港の気象観測と天気予報(METAR報とTAF報)

利用可能な観測所は地図上に黄色い丸と赤い丸で示す。

丸の上にカーソルを重ねると観測所名を参照できる。

次にクリックすると気象観測と天気予報を参照できる。

マップの切り替え:黒色「×」印の緑ボタンをクリックして拡大、「-」印の緑ボタンをクリックして縮小、緑色の三角印をクリックして隣りの地図に切り替え


METAR-TAF: